Victoria, Canada
Current Conditions -  °F | °C
As of 9:00 PM on Wednesday 22 Oct 2014 (Local Time) from CYWH Reporting Station
Overcast Overcast  
Wind Chill: 54°   Ceiling: 14000
Heat Index: 54°   Visibility: 10mi
Dew Point: 50°   Wind: 8mph
Humidity: 88%   Direction: 270°W
Pressure: 29.52"   Gusts: NA
Location:  48.43°N, 123.37°W
Report Text: CYWH 230400Z 27007KT 10SM SCT005 SCT060 OVC140 12/10 A2952 RMKSF3SC1AC4 LAST OBS/NEXT 231300 UTC SLP996
Loading
Personal Weather Stations






























Interactive Weather Map
Tropical Storm Tracking
New forecast layout! Learn more

10-Day Weather Forecast

Advertisements
Track Severe Weather on mobile